Time;durP1;ratioP1;P1;durP2;ratioP2;P2;SDS_P1;SDS_P2;PMS_P1;PMS_P2;Temp;Humidity;BMP_temperature;BMP_pressure;BME280_temperature;BME280_humidity;BME280_pressure;Samples;Min_cycle;Max_cycle;Signal;HPM_P1;HPM_P2
2023/08/25 00:01:00;;;;;;;28.58;25.52;;;21.60;1.00;;;;;;5052466;28;20621;-34
2023/08/25 00:03:29;;;;;;;29.27;26.02;;;21.20;1.00;;;;;;5039965;28;20038;-36
2023/08/25 00:05:55;;;;;;;30.17;26.98;;;21.50;1.00;;;;;;5047565;28;20041;-35
2023/08/25 00:08:24;;;;;;;30.85;26.08;;;21.00;1.00;;;;;;5038038;28;20041;-36
2023/08/25 00:10:50;;;;;;;29.10;25.92;;;21.80;1.00;;;;;;5037154;28;20095;-36
2023/08/25 00:13:16;;;;;;;29.00;26.05;;;21.40;1.00;;;;;;5050213;28;20028;-38
2023/08/25 00:15:44;;;;;;;30.65;27.45;;;21.70;1.00;;;;;;5058846;28;20086;-38
2023/08/25 00:18:09;;;;;;;31.25;26.48;;;21.70;1.00;;;;;;5046311;28;20098;-38
2023/08/25 00:20:36;;;;;;;30.80;26.92;;;21.10;1.00;;;;;;5048114;28;20384;-38
2023/08/25 00:23:02;;;;;;;31.88;27.38;;;21.50;3.50;;;;;;5037016;28;20513;-35
2023/08/25 00:25:29;;;;;;;32.17;28.88;;;21.70;7.70;;;;;;5046702;28;20044;-38
2023/08/25 00:27:58;;;;;;;31.65;28.27;;;21.70;10.20;;;;;;5028542;28;20042;-38
2023/08/25 00:30:24;;;;;;;31.65;28.23;;;21.40;12.10;;;;;;5046738;28;20029;-38
2023/08/25 00:32:50;;;;;;;31.77;28.00;;;20.80;14.10;;;;;;5044145;28;20044;-35
2023/08/25 00:35:16;;;;;;;31.55;28.02;;;20.60;16.50;;;;;;5048750;28;20429;-33
2023/08/25 00:37:42;;;;;;;32.58;29.45;;;20.90;18.20;;;;;;5027707;28;20770;-36
2023/08/25 00:40:08;;;;;;;32.42;29.15;;;21.20;21.90;;;;;;5045782;28;20033;-38
2023/08/25 00:42:34;;;;;;;34.08;29.67;;;21.60;20.10;;;;;;5055862;28;20421;-36
2023/08/25 00:45:00;;;;;;;34.75;31.15;;;21.30;26.10;;;;;;5050141;28;20082;-38
2023/08/25 00:47:25;;;;;;;32.25;28.77;;;21.40;28.50;;;;;;5049812;28;20523;-36
2023/08/25 00:49:53;;;;;;;33.47;28.48;;;21.50;34.10;;;;;;5030137;28;20507;-35
2023/08/25 00:52:21;;;;;;;34.30;30.60;;;20.50;37.60;;;;;;5046991;28;20399;-37
2023/08/25 00:54:53;;;;;;;34.17;30.48;;;20.40;41.90;;;;;;5048413;28;20040;-35
2023/08/25 00:57:19;;;;;;;33.53;29.92;;;21.50;49.50;;;;;;5048650;28;20064;-38
2023/08/25 00:59:46;;;;;;;33.83;30.08;;;21.90;52.40;;;;;;5050726;28;20037;-37
2023/08/25 01:02:12;;;;;;;35.55;31.63;;;21.80;57.90;;;;;;5048832;28;20059;-35
2023/08/25 01:04:38;;;;;;;34.88;31.17;;;21.40;63.10;;;;;;5049198;28;20518;-38
2023/08/25 01:07:04;;;;;;;33.20;29.20;;;21.20;60.50;;;;;;5048506;28;20041;-38
2023/08/25 01:09:32;;;;;;;37.58;32.63;;;20.80;68.00;;;;;;5052527;28;20116;-36
2023/08/25 01:12:27;;;;;;;40.53;32.70;;;21.00;75.10;;;;;;5049070;28;20139;-38
2023/08/25 01:15:10;;;;;;;35.08;31.08;;;21.30;63.50;;;;;;5056715;28;20055;-36
2023/08/25 01:17:59;;;;;;;34.83;30.52;;;20.50;77.70;;;;;;5065001;28;20049;-35
2023/08/25 01:20:26;;;;;;;37.10;33.10;;;21.70;72.10;;;;;;5045494;28;20033;-36
2023/08/25 01:23:21;;;;;;;36.60;31.30;;;20.70;85.70;;;;;;5048235;28;20032;-37
2023/08/25 01:25:50;;;;;;;38.22;32.33;;;21.70;81.10;;;;;;5047115;28;20033;-37
2023/08/25 01:28:20;;;;;;;36.95;31.80;;;20.50;90.10;;;;;;5056442;28;20044;-38
2023/08/25 01:30:45;;;;;;;41.28;32.97;;;20.90;96.00;;;;;;5042417;28;20047;-37
2023/08/25 01:33:11;;;;;;;38.70;32.25;;;21.60;94.90;;;;;;5013017;28;20033;-36
2023/08/25 01:36:12;;;;;;;35.92;31.88;;;21.80;96.20;;;;;;5039954;28;20033;-36
2023/08/25 01:38:54;;;;;;;39.53;32.55;;;21.70;93.20;;;;;;5055904;28;20084;-37
2023/08/25 01:41:31;;;;;;;47.28;34.45;;;21.00;92.80;;;;;;5051652;28;20514;-38
2023/08/25 01:44:01;;;;;;;38.78;32.33;;;20.70;93.70;;;;;;5037525;28;20601;-36
2023/08/25 01:46:28;;;;;;;37.97;32.25;;;21.70;99.90;;;;;;5047830;28;20033;-38
2023/08/25 01:48:58;;;;;;;38.38;31.30;;;20.30;99.90;;;;;;5048907;28;20041;-34
2023/08/25 01:51:24;;;;;;;37.75;32.47;;;20.40;99.90;;;;;;5037476;28;20033;-36
2023/08/25 01:53:54;;;;;;;40.33;33.13;;;21.40;99.90;;;;;;5044989;28;20044;-38
2023/08/25 01:56:20;;;;;;;38.80;34.40;;;20.90;99.90;;;;;;5034327;28;20033;-38
2023/08/25 01:58:45;;;;;;;39.88;33.85;;;21.20;99.90;;;;;;5041691;28;20206;-35
2023/08/25 02:01:15;;;;;;;41.58;34.70;;;21.50;99.90;;;;;;5048909;28;20523;-35
2023/08/25 02:03:41;;;;;;;44.25;35.30;;;21.50;99.90;;;;;;5047400;28;20041;-37
2023/08/25 02:06:09;;;;;;;41.92;34.78;;;21.00;99.90;;;;;;5029914;28;20093;-34
2023/08/25 02:08:35;;;;;;;46.00;36.00;;;21.40;99.90;;;;;;5045113;28;20049;-37
2023/08/25 02:11:01;;;;;;;42.55;36.33;;;20.60;99.90;;;;;;5055877;28;20033;-35
2023/08/25 02:13:27;;;;;;;41.50;35.70;;;21.50;99.90;;;;;;5035870;28;20118;-37
2023/08/25 02:15:53;;;;;;;47.28;37.55;;;21.70;99.90;;;;;;5048854;28;20091;-36
2023/08/25 02:18:19;;;;;;;48.45;38.55;;;21.60;99.90;;;;;;5041486;28;20049;-38
2023/08/25 02:20:44;;;;;;;47.70;36.30;;;20.70;99.90;;;;;;5042756;28;20494;-37
2023/08/25 02:23:10;;;;;;;53.15;39.35;;;21.50;99.90;;;;;;5032106;28;20128;-38
2023/08/25 02:25:36;;;;;;;51.40;38.63;;;20.60;99.90;;;;;;5061833;28;20409;-35
2023/08/25 02:28:02;;;;;;;55.00;40.58;;;21.20;99.90;;;;;;5050128;28;20289;-34
2023/08/25 02:30:31;;;;;;;55.08;41.72;;;21.50;99.90;;;;;;5055541;28;20036;-38
2023/08/25 02:32:57;;;;;;;50.20;40.78;;;20.50;99.90;;;;;;5055583;28;20033;-38
2023/08/25 02:35:23;;;;;;;54.85;41.50;;;20.60;99.90;;;;;;5049290;28;20124;-37
2023/08/25 02:38:06;;;;;;;57.45;43.47;;;21.10;99.90;;;;;;5043764;28;20091;-35
2023/08/25 02:40:33;;;;;;;53.55;39.17;;;21.30;99.90;;;;;;5048540;28;20086;-37
2023/08/25 02:43:01;;;;;;;58.63;43.67;;;21.20;99.90;;;;;;5050710;28;20037;-34
2023/08/25 02:45:27;;;;;;;59.67;44.10;;;21.00;99.90;;;;;;5045003;28;20036;-36
2023/08/25 02:47:54;;;;;;;64.20;45.60;;;21.10;99.90;;;;;;5044686;28;20531;-38
2023/08/25 02:50:24;;;;;;;60.25;44.78;;;20.60;99.90;;;;;;5048327;28;20510;-35
2023/08/25 02:52:50;;;;;;;58.67;43.97;;;21.30;99.90;;;;;;5050199;28;20041;-37
2023/08/25 02:55:21;;;;;;;67.97;47.65;;;21.40;99.90;;;;;;5043491;28;20057;-35
2023/08/25 02:57:48;;;;;;;63.40;48.10;;;20.80;99.90;;;;;;5048348;28;20045;-37
2023/08/25 03:00:25;;;;;;;68.63;52.83;;;20.50;99.90;;;;;;5050427;28;20109;-38
2023/08/25 03:02:51;;;;;;;;;;;20.80;99.90;;;;;;5043002;28;20106;-38
2023/08/25 03:05:17;;;;;;;77.15;50.13;;;20.50;99.90;;;;;;5051324;28;19967;-35
2023/08/25 03:07:43;;;;;;;75.97;53.63;;;21.30;99.90;;;;;;5027029;28;20065;-36
2023/08/25 03:10:12;;;;;;;72.38;51.17;;;20.70;99.90;;;;;;5055417;28;20067;-33
2023/08/25 03:12:40;;;;;;;72.72;50.47;;;20.50;99.90;;;;;;5046529;28;20084;-38
2023/08/25 03:15:09;;;;;;;69.53;51.10;;;20.60;99.90;;;;;;5068461;28;20115;-35
2023/08/25 03:17:36;;;;;;;71.15;51.20;;;20.50;99.90;;;;;;5045694;28;20112;-38
2023/08/25 03:20:02;;;;;;;71.35;52.75;;;21.30;99.90;;;;;;5044597;28;20033;-39
2023/08/25 03:22:29;;;;;;;75.40;53.00;;;21.00;99.90;;;;;;5048019;28;20040;-37
2023/08/25 03:24:58;;;;;;;71.38;51.60;;;21.80;99.90;;;;;;5051270;28;20029;-34
2023/08/25 03:27:25;;;;;;;73.43;51.85;;;21.60;99.90;;;;;;5047490;28;20036;-35
2023/08/25 03:29:51;;;;;;;71.97;52.67;;;20.40;99.90;;;;;;5026840;28;20120;-37
2023/08/25 03:32:17;;;;;;;76.15;54.35;;;21.40;99.90;;;;;;5058689;28;20124;-36
2023/08/25 03:34:42;;;;;;;68.07;50.05;;;20.60;99.90;;;;;;5039872;28;20039;-38
2023/08/25 03:37:11;;;;;;;75.35;52.25;;;21.20;99.90;;;;;;5043785;28;20434;-36
2023/08/25 03:39:37;;;;;;;66.82;49.80;;;21.30;99.90;;;;;;5062927;28;20490;-35
2023/08/25 03:42:03;;;;;;;70.72;50.25;;;21.50;99.90;;;;;;5063617;28;20132;-37
2023/08/25 03:44:28;;;;;;;70.68;51.88;;;21.10;99.90;;;;;;5046572;28;20041;-34
2023/08/25 03:46:57;;;;;;;72.00;52.50;;;21.70;99.90;;;;;;5045874;28;20037;-35
2023/08/25 03:49:27;;;;;;;74.68;53.20;;;21.60;99.90;;;;;;5051914;28;20086;-36
2023/08/25 03:51:58;;;;;;;;;;;21.50;99.90;;;;;;5049312;28;20052;-39
2023/08/25 03:54:24;;;;;;;72.07;50.83;;;20.40;99.90;;;;;;5047068;28;19923;-36
2023/08/25 03:56:50;;;;;;;73.80;51.92;;;21.60;99.90;;;;;;5047606;28;20036;-35
2023/08/25 03:59:16;;;;;;;71.97;52.67;;;21.20;99.90;;;;;;5047034;28;20045;-38
2023/08/25 04:01:42;;;;;;;76.60;54.60;;;21.50;99.90;;;;;;5046955;28;20060;-37
2023/08/25 04:04:07;;;;;;;74.43;53.28;;;20.40;99.90;;;;;;5030878;28;20560;-35
2023/08/25 04:06:33;;;;;;;73.50;55.22;;;20.50;99.90;;;;;;5047207;28;20505;-37
2023/08/25 04:08:59;;;;;;;76.70;56.80;;;21.40;99.90;;;;;;5046707;28;20056;-35
2023/08/25 04:11:24;;;;;;;76.43;54.75;;;21.40;99.90;;;;;;5037875;28;20146;-35
2023/08/25 04:13:50;;;;;;;78.10;55.83;;;21.70;99.90;;;;;;5049333;28;20041;-38
2023/08/25 04:16:16;;;;;;;74.57;54.20;;;20.60;99.90;;;;;;5034022;28;20548;-35
2023/08/25 04:18:42;;;;;;;83.38;57.10;;;20.40;99.90;;;;;;5061749;28;20041;-38
2023/08/25 04:21:10;;;;;;;73.93;53.70;;;21.30;99.90;;;;;;5044829;28;20039;-38
2023/08/25 04:23:36;;;;;;;69.47;53.17;;;21.60;99.90;;;;;;5049189;28;20115;-37
2023/08/25 04:26:02;;;;;;;77.95;53.40;;;21.40;99.90;;;;;;5040580;28;20548;-37
2023/08/25 04:28:28;;;;;;;73.93;52.25;;;21.30;99.90;;;;;;5062247;28;20041;-34
2023/08/25 04:30:54;;;;;;;69.90;51.63;;;21.50;99.90;;;;;;5052903;28;20628;-35
2023/08/25 04:33:20;;;;;;;71.80;54.28;;;21.70;99.90;;;;;;5040048;28;20069;-38
2023/08/25 04:35:46;;;;;;;63.85;49.65;;;20.40;99.90;;;;;;5031473;28;20049;-35
2023/08/25 04:38:14;;;;;;;65.28;51.40;;;22.10;99.90;;;;;;5037415;28;20231;-38
2023/08/25 04:40:41;;;;;;;67.15;50.92;;;21.30;99.90;;;;;;5018784;28;20033;-34
2023/08/25 04:43:06;;;;;;;60.83;46.53;;;21.50;99.90;;;;;;5035621;28;20044;-36
2023/08/25 04:45:35;;;;;;;66.20;50.10;;;20.60;99.90;;;;;;5034420;28;20419;-36
2023/08/25 04:48:01;;;;;;;60.65;47.60;;;21.60;99.90;;;;;;5035925;28;20415;-35
2023/08/25 04:50:27;;;;;;;70.22;48.97;;;20.70;99.90;;;;;;5040228;28;20037;-35
2023/08/25 04:52:52;;;;;;;60.60;45.53;;;21.50;99.90;;;;;;5041772;28;20430;-38
2023/08/25 04:55:18;;;;;;;62.03;47.17;;;20.70;99.90;;;;;;5044239;28;20486;-36
2023/08/25 04:57:45;;;;;;;64.85;46.53;;;20.90;99.90;;;;;;5039379;28;20155;-37
2023/08/25 05:00:11;;;;;;;53.72;44.05;;;20.60;99.90;;;;;;5037385;28;20098;-36
2023/08/25 05:02:38;;;;;;;51.13;43.20;;;20.50;99.90;;;;;;5041374;28;20044;-36
2023/08/25 05:05:06;;;;;;;50.67;42.17;;;21.00;99.90;;;;;;5044150;28;20037;-37
2023/08/25 05:07:32;;;;;;;50.13;41.47;;;20.70;99.90;;;;;;5041646;28;20387;-36
2023/08/25 05:09:58;;;;;;;46.88;38.80;;;20.60;99.90;;;;;;5044696;28;20040;-36
2023/08/25 05:12:24;;;;;;;49.15;41.22;;;21.30;99.90;;;;;;5041428;28;20068;-37
2023/08/25 05:14:49;;;;;;;47.97;40.97;;;21.20;99.90;;;;;;5048080;28;20456;-36
2023/08/25 05:17:15;;;;;;;50.25;39.13;;;20.60;99.90;;;;;;5048060;28;20029;-38
2023/08/25 05:19:41;;;;;;;45.53;38.67;;;20.80;99.90;;;;;;5048967;28;20483;-35
2023/08/25 05:22:07;;;;;;;46.10;37.25;;;21.40;99.90;;;;;;5047399;28;20040;-36
2023/08/25 05:24:33;;;;;;;45.03;38.38;;;21.50;99.90;;;;;;5045094;28;20029;-38
2023/08/25 05:26:59;;;;;;;46.88;37.17;;;21.60;99.90;;;;;;5047529;28;20040;-36
2023/08/25 05:29:29;;;;;;;48.70;36.20;;;20.70;99.90;;;;;;5042802;28;21896;-38
2023/08/25 05:31:54;;;;;;;48.42;36.13;;;21.10;99.90;;;;;;5046350;28;20116;-34
2023/08/25 05:34:20;;;;;;;48.42;36.10;;;22.20;99.90;;;;;;5049910;28;20509;-36
2023/08/25 05:36:46;;;;;;;42.40;33.90;;;21.70;99.90;;;;;;5044371;28;20033;-37
2023/08/25 05:39:12;;;;;;;47.13;34.50;;;21.20;99.90;;;;;;5029322;28;20507;-38
2023/08/25 05:41:39;;;;;;;43.67;34.00;;;21.70;99.90;;;;;;5063860;28;20679;-36
2023/08/25 05:44:05;;;;;;;44.15;32.47;;;21.70;99.90;;;;;;5048706;28;20036;-36
2023/08/25 05:46:33;;;;;;;37.22;31.23;;;20.80;99.90;;;;;;5045469;28;20037;-34
2023/08/25 05:48:59;;;;;;;37.05;30.20;;;20.70;99.90;;;;;;5049952;28;20044;-37
2023/08/25 05:51:26;;;;;;;38.63;30.60;;;20.60;99.90;;;;;;5043435;28;20041;-35
2023/08/25 05:53:52;;;;;;;35.92;28.80;;;23.00;99.90;;;;;;5052682;28;20029;-36
2023/08/25 05:56:18;;;;;;;36.47;27.38;;;21.00;99.90;;;;;;5038682;28;20067;-35
2023/08/25 05:58:43;;;;;;;31.90;27.92;;;21.80;99.90;;;;;;5055124;28;20498;-35
2023/08/25 06:01:11;;;;;;;30.35;25.60;;;21.60;99.90;;;;;;5045639;28;20556;-34
2023/08/25 06:03:37;;;;;;;30.35;22.13;;;21.30;99.90;;;;;;5053626;28;20051;-36
2023/08/25 06:06:05;;;;;;;30.30;23.45;;;20.70;99.90;;;;;;5037904;28;20044;-35
2023/08/25 06:08:32;;;;;;;28.50;22.23;;;21.80;99.90;;;;;;5053941;28;20048;-35
2023/08/25 06:10:58;;;;;;;26.48;20.70;;;21.90;98.80;;;;;;5040212;28;20094;-37
2023/08/25 06:13:24;;;;;;;23.40;19.15;;;21.90;94.90;;;;;;5044292;28;20033;-35
2023/08/25 06:15:50;;;;;;;23.98;19.48;;;21.70;90.80;;;;;;5037628;28;20044;-33
2023/08/25 06:18:19;;;;;;;25.95;19.17;;;21.70;82.30;;;;;;5034518;28;20056;-38
2023/08/25 06:20:45;;;;;;;25.08;19.27;;;21.50;72.00;;;;;;5043010;28;20044;-36
2023/08/25 06:23:13;;;;;;;21.05;18.75;;;22.10;62.60;;;;;;5050282;28;20507;-35
2023/08/25 06:25:38;;;;;;;21.20;16.95;;;21.90;52.20;;;;;;5009021;28;20052;-34
2023/08/25 06:28:05;;;;;;;25.38;19.23;;;20.70;39.90;;;;;;5031687;28;20069;-35
2023/08/25 06:30:33;;;;;;;21.02;16.95;;;21.80;28.60;;;;;;5062230;28;20068;-38
2023/08/25 06:32:59;;;;;;;19.92;15.57;;;20.90;21.90;;;;;;5022721;28;20025;-36
2023/08/25 06:35:25;;;;;;;20.88;17.33;;;21.10;13.20;;;;;;5061901;28;20502;-37
2023/08/25 06:37:51;;;;;;;21.85;15.68;;;20.70;5.70;;;;;;5051573;28;20048;-38
2023/08/25 06:40:17;;;;;;;19.92;16.25;;;20.70;1.00;;;;;;5045487;28;20124;-38
2023/08/25 06:42:43;;;;;;;19.85;15.50;;;21.80;1.00;;;;;;5025828;28;20507;-38
2023/08/25 06:45:09;;;;;;;20.85;14.88;;;21.00;1.00;;;;;;5054623;28;20211;-38
2023/08/25 06:47:37;;;;;;;19.70;14.48;;;21.00;1.00;;;;;;5058440;28;20044;-36
2023/08/25 06:50:05;;;;;;;17.83;14.57;;;21.50;1.00;;;;;;5042768;28;20038;-35
2023/08/25 06:52:31;;;;;;;16.40;11.98;;;21.50;1.00;;;;;;5045917;28;20037;-37
2023/08/25 06:54:57;;;;;;;14.80;9.35;;;21.70;1.00;;;;;;5041233;28;20048;-36
2023/08/25 06:57:23;;;;;;;12.07;8.20;;;21.20;1.00;;;;;;5053369;28;20050;-36
2023/08/25 06:59:50;;;;;;;14.02;9.55;;;21.30;1.00;;;;;;5051303;28;20480;-37
2023/08/25 07:02:16;;;;;;;12.93;8.90;;;21.80;1.00;;;;;;5052323;28;20086;-36
2023/08/25 07:04:41;;;;;;;13.32;9.23;;;20.90;1.00;;;;;;5055556;28;20037;-35
2023/08/25 07:07:07;;;;;;;11.68;9.25;;;21.60;1.00;;;;;;5031857;28;20511;-36
2023/08/25 07:09:33;;;;;;;13.48;10.05;;;21.80;1.00;;;;;;5037923;28;20037;-34
2023/08/25 07:11:59;;;;;;;13.73;10.93;;;21.00;1.00;;;;;;5029108;28;20049;-35
2023/08/25 07:14:30;;;;;;;17.67;11.60;;;22.00;1.00;;;;;;5038970;28;20053;-38
2023/08/25 07:16:56;;;;;;;16.75;11.55;;;20.90;1.00;;;;;;5000068;28;20555;-38
2023/08/25 07:19:22;;;;;;;18.98;12.02;;;21.80;1.00;;;;;;5036800;28;20158;-38
2023/08/25 07:21:48;;;;;;;20.33;15.07;;;21.40;1.00;;;;;;5064971;28;20041;-33
2023/08/25 07:24:13;;;;;;;16.73;11.52;;;21.20;1.00;;;;;;5045666;28;20468;-35
2023/08/25 07:26:39;;;;;;;18.20;12.27;;;21.10;1.00;;;;;;5044303;28;20095;-38
2023/08/25 07:29:05;;;;;;;16.25;11.85;;;21.70;1.00;;;;;;5050098;28;20502;-34
2023/08/25 07:31:31;;;;;;;19.20;14.05;;;21.80;1.00;;;;;;5034255;28;20041;-38
2023/08/25 07:33:58;;;;;;;20.17;14.18;;;21.10;1.00;;;;;;5053307;28;20082;-35
2023/08/25 07:36:24;;;;;;;20.38;15.05;;;21.80;1.00;;;;;;5045117;28;20041;-35
2023/08/25 07:38:51;;;;;;;19.65;12.20;;;21.30;1.00;;;;;;5058957;28;20078;-38
2023/08/25 07:41:20;;;;;;;20.02;15.73;;;21.90;1.00;;;;;;5051128;28;20045;-38
2023/08/25 07:43:46;;;;;;;15.63;12.88;;;21.40;1.00;;;;;;5051585;28;20072;-34
2023/08/25 07:46:12;;;;;;;17.75;12.88;;;22.10;1.00;;;;;;5050521;28;20041;-35
2023/08/25 07:48:38;;;;;;;17.02;13.48;;;21.90;1.00;;;;;;5031154;28;20541;-35
2023/08/25 07:51:04;;;;;;;17.25;12.90;;;21.10;1.00;;;;;;5057079;28;20482;-35
2023/08/25 07:53:31;;;;;;;20.70;14.98;;;21.80;1.00;;;;;;5045226;28;20087;-37
2023/08/25 07:55:58;;;;;;;18.95;14.38;;;21.20;1.00;;;;;;5046044;28;20107;-35
2023/08/25 07:58:24;;;;;;;20.10;14.07;;;22.10;1.00;;;;;;5044294;28;20072;-37
2023/08/25 08:00:54;;;;;;;22.35;15.05;;;21.90;1.00;;;;;;5046448;28;20054;-37
2023/08/25 08:03:20;;;;;;;20.50;15.15;;;21.80;1.00;;;;;;5047550;28;20499;-35
2023/08/25 08:05:45;;;;;;;19.50;14.57;;;21.30;1.00;;;;;;5016711;28;20286;-34
2023/08/25 08:08:11;;;;;;;21.80;14.07;;;21.90;1.00;;;;;;5050053;28;20473;-37
2023/08/25 08:10:38;;;;;;;19.50;14.15;;;21.80;1.00;;;;;;5049976;28;20395;-36
2023/08/25 08:13:03;;;;;;;21.00;13.98;;;21.10;1.00;;;;;;5043890;28;20033;-37
2023/08/25 08:15:30;;;;;;;20.95;15.63;;;22.10;1.00;;;;;;5039838;28;20553;-35
2023/08/25 08:17:58;;;;;;;17.25;14.30;;;22.10;1.00;;;;;;5051419;28;20386;-37
2023/08/25 08:20:24;;;;;;;19.83;14.77;;;21.10;1.00;;;;;;5048771;28;20518;-37
2023/08/25 08:22:50;;;;;;;19.70;15.70;;;21.90;1.00;;;;;;5045233;28;20033;-36
2023/08/25 08:25:16;;;;;;;21.67;14.95;;;21.20;1.00;;;;;;5042317;28;20510;-36
2023/08/25 08:27:42;;;;;;;19.85;14.38;;;22.00;1.00;;;;;;5031176;28;20040;-37
2023/08/25 08:30:09;;;;;;;19.27;14.93;;;22.10;1.00;;;;;;5041718;28;20041;-36
2023/08/25 08:32:36;;;;;;;20.35;14.13;;;21.20;99.90;;;;;;5048641;28;20040;-37
2023/08/25 08:35:07;;;;;;;20.05;14.27;;;22.00;99.90;;;;;;5040600;28;20056;-35
2023/08/25 08:37:33;;;;;;;20.70;14.95;;;22.00;99.90;;;;;;5051819;28;20119;-34
2023/08/25 08:40:00;;;;;;;22.27;16.30;;;21.80;99.90;;;;;;5051775;28;20111;-34
2023/08/25 08:42:27;;;;;;;21.17;15.02;;;22.10;99.90;;;;;;5061503;28;20036;-37
2023/08/25 08:45:00;;;;;;;21.08;13.82;;;21.60;99.90;;;;;;5051429;28;20098;-35
2023/08/25 08:47:26;;;;;;;18.65;14.25;;;21.90;99.90;;;;;;5051626;28;20032;-35
2023/08/25 08:49:58;;;;;;;18.40;14.45;;;21.80;99.90;;;;;;5042435;28;20048;-34
2023/08/25 08:52:24;;;;;;;23.75;14.10;;;22.20;99.90;;;;;;5045770;28;20033;-34
2023/08/25 08:54:49;;;;;;;19.35;13.25;;;21.80;99.90;;;;;;5022195;28;20470;-34
2023/08/25 08:57:17;;;;;;;28.05;20.55;;;22.20;99.90;;;;;;5052890;28;20490;-37
2023/08/25 08:59:44;;;;;;;19.13;14.68;;;21.80;99.90;;;;;;5041827;28;20073;-36
2023/08/25 09:02:13;;;;;;;19.13;13.35;;;22.00;99.90;;;;;;5054052;28;20039;-37
2023/08/25 09:04:40;;;;;;;22.42;13.80;;;22.20;99.90;;;;;;5039833;28;20045;-37
2023/08/25 09:07:08;;;;;;;21.77;13.88;;;21.20;99.90;;;;;;5033163;28;20045;-35
2023/08/25 09:09:33;;;;;;;17.65;13.73;;;21.90;99.90;;;;;;5051905;28;20078;-37
2023/08/25 09:11:59;;;;;;;18.77;13.15;;;23.00;99.90;;;;;;5045607;28;20125;-37
2023/08/25 09:14:27;;;;;;;20.30;13.43;;;22.00;99.90;;;;;;5041449;28;20049;-34
2023/08/25 09:17:00;;;;;;;22.17;14.07;;;21.80;99.90;;;;;;5036245;28;20381;-37
2023/08/25 09:19:30;;;;;;;18.80;13.30;;;21.90;99.90;;;;;;5026795;28;20521;-37
2023/08/25 09:21:56;;;;;;;20.75;13.80;;;22.10;99.90;;;;;;5045793;28;20068;-37
2023/08/25 09:24:22;;;;;;;17.40;12.82;;;22.20;99.90;;;;;;5041052;28;20048;-38
2023/08/25 09:26:49;;;;;;;22.73;14.65;;;22.10;99.90;;;;;;5057888;28;20036;-38
2023/08/25 09:29:15;;;;;;;18.90;13.20;;;22.00;99.90;;;;;;5044143;28;20162;-34
2023/08/25 09:31:42;;;;;;;19.80;13.30;;;21.80;99.90;;;;;;5038484;28;20029;-37
2023/08/25 09:34:10;;;;;;;17.25;13.02;;;22.30;99.90;;;;;;5051747;28;20030;-35
2023/08/25 09:36:53;;;;;;;18.80;12.38;;;22.30;99.90;;;;;;5040694;28;20035;-34
2023/08/25 09:39:22;;;;;;;17.70;12.68;;;22.20;99.90;;;;;;5045673;28;20052;-37
2023/08/25 09:41:49;;;;;;;18.88;13.40;;;22.10;99.90;;;;;;5056984;28;20513;-35
2023/08/25 09:44:16;;;;;;;16.45;11.18;;;22.30;99.90;;;;;;5037057;28;20117;-34
2023/08/25 09:46:45;;;;;;;18.50;12.48;;;22.30;99.90;;;;;;5044729;28;20041;-36
2023/08/25 09:49:14;;;;;;;17.88;12.85;;;22.40;99.90;;;;;;5048073;28;20041;-37
2023/08/25 09:51:44;;;;;;;17.40;12.25;;;21.70;99.90;;;;;;5043855;28;20029;-34
2023/08/25 09:54:12;;;;;;;15.63;11.27;;;22.50;99.90;;;;;;5045569;28;20064;-34
2023/08/25 09:56:42;;;;;;;16.42;11.90;;;22.00;99.90;;;;;;5051203;28;20430;-35
2023/08/25 09:59:09;;;;;;;15.57;12.20;;;21.40;99.90;;;;;;5038936;28;20040;-35
2023/08/25 10:01:40;;;;;;;16.58;12.35;;;22.10;99.90;;;;;;5044004;28;20109;-36
2023/08/25 10:04:06;;;;;;;17.00;10.75;;;22.40;99.90;;;;;;5042077;28;20387;-34
2023/08/25 10:06:35;;;;;;;15.70;11.35;;;22.10;99.90;;;;;;5051526;28;20036;-36
2023/08/25 10:09:02;;;;;;;16.98;10.23;;;22.30;99.90;;;;;;5049210;28;20048;-35
2023/08/25 10:11:29;;;;;;;15.55;10.75;;;22.30;99.90;;;;;;5050700;28;20094;-38
2023/08/25 10:13:56;;;;;;;13.80;10.00;;;21.80;99.90;;;;;;5042301;28;20040;-36
2023/08/25 10:16:25;;;;;;;15.77;10.43;;;22.30;99.90;;;;;;5051598;28;20044;-36
2023/08/25 10:18:55;;;;;;;15.35;10.65;;;21.50;99.90;;;;;;5045984;28;20055;-37
2023/08/25 10:21:22;;;;;;;12.77;9.38;;;22.30;99.90;;;;;;5048211;28;20446;-36
2023/08/25 10:23:51;;;;;;;13.70;9.18;;;22.20;99.90;;;;;;5058781;28;20359;-37
2023/08/25 10:26:17;;;;;;;17.23;11.40;;;22.00;99.90;;;;;;5043090;28;20047;-38
2023/08/25 10:28:45;;;;;;;16.10;10.77;;;22.30;99.90;;;;;;5045764;28;20052;-36
2023/08/25 10:31:12;;;;;;;15.80;11.27;;;22.40;99.90;;;;;;5047824;28;20402;-34
2023/08/25 10:33:57;;;;;;;16.30;10.15;;;22.10;99.90;;;;;;5064143;28;20036;-35
2023/08/25 10:36:23;;;;;;;;;;;22.30;99.90;;;;;;5040327;28;20403;-36
2023/08/25 10:38:54;;;;;;;22.77;16.60;;;22.60;99.90;;;;;;5054191;28;20269;-37
2023/08/25 10:41:21;;;;;;;20.55;13.45;;;22.10;99.90;;;;;;5050022;28;20045;-35
2023/08/25 10:43:53;;;;;;;15.55;11.63;;;22.10;99.90;;;;;;5058111;28;20059;-36
2023/08/25 10:46:20;;;;;;;12.98;10.13;;;22.40;99.90;;;;;;5045935;28;20119;-37
2023/08/25 10:48:50;;;;;;;15.65;10.50;;;22.30;99.90;;;;;;5054692;28;20079;-35
2023/08/25 10:51:20;;;;;;;15.23;10.60;;;22.30;99.90;;;;;;5045804;28;20450;-37
2023/08/25 10:53:51;;;;;;;15.45;10.35;;;22.60;99.90;;;;;;5039042;28;20049;-34
2023/08/25 10:56:17;;;;;;;16.15;10.82;;;22.30;99.90;;;;;;5058251;28;20033;-35
2023/08/25 10:58:53;;;;;;;20.92;10.90;;;22.60;99.90;;;;;;5047812;28;20037;-37
2023/08/25 11:01:19;;;;;;;18.70;10.40;;;22.50;99.90;;;;;;5041887;28;20040;-37
2023/08/25 11:04:07;;;;;;;16.98;10.10;;;22.20;99.90;;;;;;5046973;28;20045;-35
2023/08/25 11:06:46;;;;;;;13.43;10.05;;;22.60;99.90;;;;;;5059327;28;20083;-35
2023/08/25 11:09:17;;;;;;;16.65;11.13;;;22.50;99.90;;;;;;5052672;28;20403;-36
2023/08/25 11:11:45;;;;;;;16.25;11.27;;;22.50;99.90;;;;;;5054138;28;20410;-35
2023/08/25 11:14:11;;;;;;;15.30;10.95;;;22.40;99.90;;;;;;5060908;28;20060;-37
2023/08/25 11:16:41;;;;;;;17.38;11.45;;;22.00;99.90;;;;;;5055314;28;20033;-34
2023/08/25 11:19:10;;;;;;;16.65;10.07;;;22.60;99.90;;;;;;5058092;28;20263;-34
2023/08/25 11:21:36;;;;;;;14.75;10.63;;;22.20;99.90;;;;;;5054527;28;20044;-37
2023/08/25 11:24:02;;;;;;;15.02;9.65;;;22.40;99.90;;;;;;5052929;28;20441;-36
2023/08/25 11:26:30;;;;;;;15.80;10.85;;;22.50;99.90;;;;;;5042648;28;20036;-36
2023/08/25 11:28:56;;;;;;;20.45;10.95;;;22.70;99.90;;;;;;5061523;28;20055;-36
2023/08/25 11:31:23;;;;;;;18.65;13.95;;;22.50;99.90;;;;;;5050124;28;20025;-37
2023/08/25 11:33:52;;;;;;;19.25;10.55;;;22.70;99.90;;;;;;5050027;28;20068;-37
2023/08/25 11:36:22;;;;;;;16.33;11.07;;;22.10;99.90;;;;;;5061959;28;20047;-34
2023/08/25 11:38:49;;;;;;;12.98;9.00;;;22.40;99.90;;;;;;5060218;28;20041;-34
2023/08/25 11:41:15;;;;;;;19.92;14.63;;;24.30;99.90;;;;;;5047125;28;20119;-36
2023/08/25 11:43:41;;;;;;;16.60;12.82;;;22.50;99.90;;;;;;5062267;28;20052;-36
2023/08/25 11:46:07;;;;;;;18.50;12.55;;;22.30;99.90;;;;;;5057686;28;20036;-37
2023/08/25 11:48:33;;;;;;;15.93;12.48;;;22.20;99.90;;;;;;5047038;28;20067;-36
2023/08/25 11:51:00;;;;;;;20.33;14.98;;;22.30;99.90;;;;;;5040605;28;20037;-38
2023/08/25 11:53:26;;;;;;;19.13;14.90;;;22.30;99.90;;;;;;5044753;28;20043;-36
2023/08/25 11:56:03;;;;;;;17.98;12.88;;;22.20;99.90;;;;;;5050757;28;20400;-36
2023/08/25 11:58:33;;;;;;;14.48;11.75;;;22.50;97.00;;;;;;5038553;28;20083;-37
2023/08/25 12:01:03;;;;;;;14.13;10.20;;;22.50;98.70;;;;;;5062323;28;20407;-36
2023/08/25 12:03:29;;;;;;;12.07;9.52;;;22.40;99.90;;;;;;5043152;28;20395;-36
2023/08/25 12:05:55;;;;;;;17.00;10.93;;;22.40;99.90;;;;;;5044981;28;20119;-36
2023/08/25 12:08:23;;;;;;;13.13;9.45;;;22.40;99.90;;;;;;5055858;28;20499;-34
2023/08/25 12:10:50;;;;;;;13.23;9.70;;;22.50;99.90;;;;;;5039974;28;20055;-37
2023/08/25 12:13:23;;;;;;;14.32;9.40;;;22.40;99.90;;;;;;5044903;28;20498;-34
2023/08/25 12:15:53;;;;;;;12.48;9.90;;;22.50;99.90;;;;;;5055557;28;20052;-38
2023/08/25 12:18:20;;;;;;;14.30;9.45;;;22.50;99.90;;;;;;5030818;28;20404;-36
2023/08/25 12:20:46;;;;;;;12.32;9.57;;;22.30;99.90;;;;;;5050783;28;20458;-37
2023/08/25 12:23:14;;;;;;;15.40;9.05;;;22.30;99.90;;;;;;5057119;28;20043;-38
2023/08/25 12:25:43;;;;;;;15.70;9.40;;;22.40;98.50;;;;;;5059226;28;20131;-36
2023/08/25 12:28:10;;;;;;;14.55;9.25;;;22.50;98.00;;;;;;5050591;28;20033;-35
2023/08/25 12:30:37;;;;;;;12.82;9.02;;;22.30;97.10;;;;;;5041223;28;20446;-37
2023/08/25 12:33:03;;;;;;;14.13;9.10;;;22.60;97.20;;;;;;5042103;28;20401;-35